createdAt,value
2018-11-20T00:01:01.444Z,3.15
2018-11-20T00:02:10.092Z,3.12
2018-11-20T00:03:18.718Z,3.09
2018-11-20T00:04:27.353Z,3.01
2018-11-20T00:05:35.990Z,3.03
2018-11-20T00:06:44.627Z,3.01
2018-11-20T00:07:53.257Z,2.93
2018-11-20T00:09:01.895Z,2.87
2018-11-20T00:10:10.790Z,2.97
2018-11-20T00:11:19.421Z,2.9
2018-11-20T00:12:28.064Z,2.93
2018-11-20T00:13:36.691Z,2.82
2018-11-20T00:14:45.329Z,2.98
2018-11-20T00:15:53.952Z,2.95
2018-11-20T00:17:02.595Z,2.98
2018-11-20T00:18:11.224Z,2.97
2018-11-20T00:19:20.129Z,2.93
2018-11-20T00:20:28.752Z,2.93
2018-11-20T00:21:37.397Z,3.03
2018-11-20T00:22:46.026Z,3.01
2018-11-20T00:23:54.658Z,3.09
2018-11-20T00:25:03.286Z,3.12
2018-11-20T00:26:11.921Z,3.19
2018-11-20T00:27:20.555Z,3.19
2018-11-20T00:28:29.192Z,3.21
2018-11-20T00:29:37.831Z,3.21
2018-11-20T00:30:46.455Z,3.3
2018-11-20T00:31:55.090Z,3.19
2018-11-20T00:33:04.282Z,3.31
2018-11-20T00:34:12.888Z,3.33
2018-11-20T00:35:21.516Z,3.31
2018-11-20T00:36:30.149Z,3.34
2018-11-20T00:37:38.783Z,3.4
2018-11-20T00:38:47.423Z,3.34
2018-11-20T00:39:56.318Z,3.41
2018-11-20T00:41:04.955Z,3.41
2018-11-20T00:42:13.589Z,3.37
2018-11-20T00:43:22.554Z,3.45
2018-11-20T00:44:31.187Z,3.46
2018-11-20T00:45:39.824Z,3.43
2018-11-20T00:46:48.450Z,3.5
2018-11-20T00:47:57.348Z,3.37
2018-11-20T00:49:05.988Z,3.48
2018-11-20T00:50:14.620Z,3.52
2018-11-20T00:51:23.520Z,3.5
2018-11-20T00:52:32.151Z,3.5
2018-11-20T00:53:40.787Z,3.48
2018-11-20T00:54:49.689Z,3.48
2018-11-20T00:55:58.322Z,3.64
2018-11-20T00:57:06.955Z,3.59
2018-11-20T00:58:16.948Z,3.7
2018-11-20T00:59:25.579Z,3.68
2018-11-20T01:00:34.217Z,3.74
2018-11-20T01:01:42.845Z,3.63
2018-11-20T01:02:51.746Z,3.56
2018-11-20T01:04:00.381Z,3.64
2018-11-20T01:05:09.019Z,3.73
2018-11-20T01:06:17.653Z,3.63
2018-11-20T01:07:26.284Z,3.71
2018-11-20T01:08:34.919Z,3.67
2018-11-20T01:09:43.557Z,3.74
2018-11-20T01:10:52.456Z,3.73
2018-11-20T01:12:01.355Z,3.67
2018-11-20T01:13:10.549Z,3.63
2018-11-20T01:14:19.195Z,3.64
2018-11-20T01:15:28.097Z,3.74
2018-11-20T01:16:36.726Z,3.68
2018-11-20T01:17:45.362Z,3.74
2018-11-20T01:18:53.999Z,3.68
2018-11-20T01:20:02.903Z,3.71
2018-11-20T01:21:11.540Z,3.74
2018-11-20T01:22:20.173Z,3.71
2018-11-20T01:23:28.804Z,3.67
2018-11-20T01:24:37.436Z,3.71
2018-11-20T01:25:46.080Z,3.78
2018-11-20T01:26:54.709Z,3.74
2018-11-20T01:28:03.347Z,3.76
2018-11-20T01:29:12.236Z,3.7
2018-11-20T01:30:20.879Z,3.73
2018-11-20T01:31:29.510Z,3.74
2018-11-20T01:32:38.147Z,3.76
2018-11-20T01:33:46.778Z,3.68
2018-11-20T01:34:55.420Z,3.73
2018-11-20T01:36:04.052Z,3.68
2018-11-20T01:37:12.690Z,3.68
2018-11-20T01:38:21.316Z,3.76
2018-11-20T01:39:29.951Z,3.7
2018-11-20T01:40:38.591Z,3.74
2018-11-20T01:41:47.230Z,3.76
2018-11-20T01:42:55.863Z,3.81
2018-11-20T01:44:04.490Z,3.76
2018-11-20T01:45:14.076Z,3.73
2018-11-20T01:46:22.966Z,3.74
2018-11-20T01:47:31.611Z,3.86
2018-11-20T01:48:40.232Z,3.73
2018-11-20T01:49:48.873Z,3.74
2018-11-20T01:50:57.505Z,3.74
2018-11-20T01:52:06.149Z,3.82
2018-11-20T01:53:14.774Z,3.81
2018-11-20T01:54:23.673Z,3.74
2018-11-20T01:55:32.307Z,3.71
2018-11-20T01:56:40.948Z,3.86
2018-11-20T01:57:49.582Z,3.78
2018-11-20T01:58:58.212Z,3.88
2018-11-20T02:00:06.845Z,3.88
2018-11-20T02:01:15.476Z,3.82
2018-11-20T02:02:24.119Z,3.81
2018-11-20T02:03:32.749Z,3.78
2018-11-20T02:04:41.388Z,3.82
2018-11-20T02:05:50.014Z,3.84
2018-11-20T02:06:58.658Z,3.86
2018-11-20T02:08:07.288Z,3.81
2018-11-20T02:09:15.925Z,3.86
2018-11-20T02:10:24.550Z,3.84
2018-11-20T02:11:33.191Z,3.84
2018-11-20T02:12:41.824Z,3.86
2018-11-20T02:13:50.462Z,3.88
2018-11-20T02:14:59.087Z,3.92
2018-11-20T02:16:07.728Z,3.84
2018-11-20T02:17:16.370Z,3.88
2018-11-20T02:18:25.528Z,3.85
2018-11-20T02:19:34.165Z,3.92
2018-11-20T02:20:42.788Z,3.89
2018-11-20T02:21:51.429Z,3.85
2018-11-20T02:23:00.330Z,3.89
2018-11-20T02:24:08.957Z,3.89
2018-11-20T02:25:17.599Z,3.91
2018-11-20T02:26:26.494Z,3.88
2018-11-20T02:27:35.131Z,3.85
2018-11-20T02:28:43.755Z,3.84
2018-11-20T02:29:52.395Z,3.81
2018-11-20T02:31:01.030Z,3.81
2018-11-20T02:32:09.665Z,3.81
2018-11-20T02:33:18.289Z,3.76
2018-11-20T02:34:27.186Z,3.76
2018-11-20T02:35:35.825Z,3.84
2018-11-20T02:36:44.461Z,3.88
2018-11-20T02:37:53.361Z,3.81
2018-11-20T02:39:01.992Z,3.86
2018-11-20T02:40:10.635Z,3.88
2018-11-20T02:41:19.264Z,3.88
2018-11-20T02:42:27.914Z,3.91
2018-11-20T02:43:36.538Z,3.84
2018-11-20T02:44:45.178Z,3.89
2018-11-20T02:45:53.808Z,3.84
2018-11-20T02:47:02.454Z,3.86
2018-11-20T02:48:11.607Z,3.82
2018-11-20T02:49:21.588Z,3.88
2018-11-20T02:50:30.489Z,3.91
2018-11-20T02:51:39.131Z,3.86
2018-11-20T02:52:47.762Z,3.84
2018-11-20T02:53:56.391Z,3.85
2018-11-20T02:55:05.026Z,3.88
2018-11-20T02:56:13.655Z,3.78
2018-11-20T02:57:22.298Z,3.74
2018-11-20T02:58:31.191Z,3.81
2018-11-20T02:59:39.829Z,3.7
2018-11-20T03:00:48.455Z,3.81
2018-11-20T03:01:57.100Z,3.68
2018-11-20T03:03:05.992Z,3.76
2018-11-20T03:04:14.630Z,3.73
2018-11-20T03:05:23.255Z,3.78
2018-11-20T03:06:31.898Z,3.73
2018-11-20T03:07:40.531Z,3.74
2018-11-20T03:08:49.167Z,3.73
2018-11-20T03:09:57.796Z,3.73
2018-11-20T03:11:06.433Z,3.81
2018-11-20T03:12:15.071Z,3.71
2018-11-20T03:13:23.707Z,3.78
2018-11-20T03:14:32.344Z,3.88
2018-11-20T03:15:41.494Z,3.77
2018-11-20T03:16:50.133Z,3.76
2018-11-20T03:17:58.765Z,3.82
2018-11-20T03:19:07.674Z,3.88
2018-11-20T03:20:16.302Z,3.84
2018-11-20T03:21:24.943Z,3.86
2018-11-20T03:22:33.579Z,3.86
2018-11-20T03:23:42.220Z,3.89
2018-11-20T03:24:50.854Z,3.92
2018-11-20T03:25:59.756Z,3.91
2018-11-20T03:27:08.491Z,3.92
2018-11-20T03:28:17.025Z,3.99
2018-11-20T03:29:25.656Z,3.95
2018-11-20T03:30:34.291Z,3.89
2018-11-20T03:31:42.924Z,4.02
2018-11-20T03:32:51.555Z,4
2018-11-20T03:34:00.201Z,4.04
2018-11-20T03:35:08.828Z,3.99
2018-11-20T03:36:17.565Z,3.99
2018-11-20T03:37:26.096Z,4.1
2018-11-20T03:38:34.737Z,4.07
2018-11-20T03:39:43.368Z,4.07
2018-11-20T03:40:52.268Z,4.07
2018-11-20T03:42:00.899Z,4.04
2018-11-20T03:43:09.802Z,4.07
2018-11-20T03:44:18.437Z,4.04
2018-11-20T03:45:27.072Z,4.04
2018-11-20T03:46:35.704Z,4.03
2018-11-20T03:47:44.404Z,4.06
2018-11-20T03:48:52.975Z,4.06
2018-11-20T03:50:01.616Z,4.04
2018-11-20T03:51:10.521Z,3.94
2018-11-20T03:52:19.425Z,4.04
2018-11-20T03:53:28.059Z,4.02
2018-11-20T03:54:36.692Z,4.02
2018-11-20T03:55:45.331Z,4.04
2018-11-20T03:56:53.959Z,4.07
2018-11-20T03:58:02.592Z,4.03
2018-11-20T03:59:11.488Z,4.07
2018-11-20T04:00:20.128Z,4.02
2018-11-20T04:01:28.758Z,4.03
2018-11-20T04:02:37.393Z,4.02
2018-11-20T04:03:46.026Z,3.94
2018-11-20T04:04:54.666Z,3.92
2018-11-20T04:06:03.563Z,3.86
2018-11-20T04:07:12.198Z,3.95
2018-11-20T04:08:20.829Z,3.92
2018-11-20T04:09:29.463Z,4.02
2018-11-20T04:10:38.103Z,4.03
2018-11-20T04:11:46.737Z,3.96
2018-11-20T04:12:55.372Z,4.02
2018-11-20T04:14:04.002Z,4
2018-11-20T04:15:12.641Z,4.02
2018-11-20T04:16:21.277Z,4.06
2018-11-20T04:17:30.174Z,3.96
2018-11-20T04:18:39.089Z,3.95
2018-11-20T04:19:47.987Z,4.02
2018-11-20T04:20:56.883Z,3.95
2018-11-20T04:22:05.787Z,4
2018-11-20T04:23:14.430Z,3.92
2018-11-20T04:24:23.334Z,4.07
2018-11-20T04:25:32.232Z,4.06
2018-11-20T04:26:40.863Z,4.02
2018-11-20T04:27:49.495Z,4.06
2018-11-20T04:28:58.137Z,4.09
2018-11-20T04:30:06.776Z,4
2018-11-20T04:31:15.416Z,3.99
2018-11-20T04:32:24.050Z,4.13
2018-11-20T04:33:32.954Z,4.1
2018-11-20T04:34:41.583Z,4.13
2018-11-20T04:35:50.223Z,4.02
2018-11-20T04:36:58.848Z,3.99
2018-11-20T04:38:07.493Z,4.06
2018-11-20T04:39:16.125Z,4.1
2018-11-20T04:40:24.761Z,4.1
2018-11-20T04:41:33.390Z,4.07
2018-11-20T04:42:42.021Z,4.09
2018-11-20T04:43:50.664Z,4.07
2018-11-20T04:44:59.298Z,4.06
2018-11-20T04:46:07.936Z,4.09
2018-11-20T04:47:16.820Z,4.09
2018-11-20T04:48:25.459Z,4.12
2018-11-20T04:49:34.089Z,4.1
2018-11-20T04:50:42.997Z,4.09
2018-11-20T04:51:51.622Z,4.04
2018-11-20T04:53:00.270Z,4.12
2018-11-20T04:54:09.422Z,4.1
2018-11-20T04:55:18.065Z,4.1
2018-11-20T04:56:26.688Z,4.12
2018-11-20T04:57:35.692Z,4.09
2018-11-20T04:58:44.228Z,4.1
2018-11-20T04:59:52.869Z,4.14
2018-11-20T05:01:01.501Z,4.1
2018-11-20T05:02:10.131Z,4.14
2018-11-20T05:03:18.762Z,4.16
2018-11-20T05:04:27.393Z,4.1
2018-11-20T05:05:36.037Z,4.16
2018-11-20T05:06:44.759Z,4.09
2018-11-20T05:07:53.304Z,4.09
2018-11-20T05:09:01.930Z,4.22
2018-11-20T05:10:10.836Z,4.14
2018-11-20T05:11:19.731Z,4.14
2018-11-20T05:12:28.370Z,4.18
2018-11-20T05:13:36.997Z,4.13
2018-11-20T05:14:45.902Z,4.16
2018-11-20T05:15:54.535Z,4.2
2018-11-20T05:17:03.172Z,4.14
2018-11-20T05:18:12.064Z,4.16
2018-11-20T05:19:20.698Z,4.13
2018-11-20T05:20:29.334Z,4.12
2018-11-20T05:21:37.971Z,4.18
2018-11-20T05:22:46.607Z,4.16
2018-11-20T05:23:55.239Z,4.2
2018-11-20T05:25:03.873Z,4.14
2018-11-20T05:26:12.508Z,4.13
2018-11-20T05:27:21.151Z,4.16
2018-11-20T05:28:30.305Z,4.13
2018-11-20T05:29:38.941Z,4.16
2018-11-20T05:30:47.895Z,4.14
2018-11-20T05:31:56.483Z,4.2
2018-11-20T05:33:05.118Z,4.14
2018-11-20T05:34:13.763Z,4.14
2018-11-20T05:35:22.655Z,4.16
2018-11-20T05:36:31.299Z,4.16
2018-11-20T05:37:40.198Z,4.14
2018-11-20T05:38:48.830Z,4.16
2018-11-20T05:39:57.463Z,4.24
2018-11-20T05:41:06.094Z,4.13
2018-11-20T05:42:14.732Z,4.16
2018-11-20T05:43:23.366Z,4.16
2018-11-20T05:44:32.000Z,4.2
2018-11-20T05:45:40.630Z,4.13
2018-11-20T05:46:49.650Z,4.16
2018-11-20T05:47:58.524Z,4.13
2018-11-20T05:49:07.157Z,4.12
2018-11-20T05:50:15.785Z,4.14
2018-11-20T05:51:24.425Z,4.18
2018-11-20T05:52:33.317Z,4.18
2018-11-20T05:53:41.953Z,4.12
2018-11-20T05:54:50.583Z,4.16
2018-11-20T05:55:59.229Z,4.14
2018-11-20T05:57:07.865Z,4.2
2018-11-20T05:58:16.502Z,4.22
2018-11-20T05:59:25.141Z,4.21
2018-11-20T06:00:33.769Z,4.21
2018-11-20T06:01:42.405Z,4.16
2018-11-20T06:02:51.040Z,4.16
2018-11-20T06:03:59.682Z,4.13
2018-11-20T06:05:08.579Z,4.16
2018-11-20T06:06:17.216Z,4.16
2018-11-20T06:07:26.115Z,4.12
2018-11-20T06:08:34.753Z,4.13
2018-11-20T06:09:43.384Z,4.21
2018-11-20T06:10:52.022Z,4.14
2018-11-20T06:12:00.833Z,4.13
2018-11-20T06:13:09.630Z,4.1
2018-11-20T06:14:18.263Z,4.12
2018-11-20T06:15:27.158Z,4.14
2018-11-20T06:16:35.798Z,4.2
2018-11-20T06:17:44.437Z,4.16
2018-11-20T06:18:53.379Z,4.14
2018-11-20T06:20:01.966Z,4.13
2018-11-20T06:21:10.606Z,4.09
2018-11-20T06:22:19.509Z,4.09
2018-11-20T06:23:28.143Z,4.1
2018-11-20T06:24:37.048Z,4.12
2018-11-20T06:25:45.697Z,4.07
2018-11-20T06:26:54.597Z,4.12
2018-11-20T06:28:03.228Z,4.13
2018-11-20T06:29:11.929Z,4.13
2018-11-20T06:30:20.501Z,4.06
2018-11-20T06:31:29.138Z,4.13
2018-11-20T06:32:37.769Z,4.09
2018-11-20T06:33:46.406Z,4.03
2018-11-20T06:34:55.047Z,4.04
2018-11-20T06:36:04.092Z,4.03
2018-11-20T06:37:12.726Z,4
2018-11-20T06:38:21.361Z,3.99
2018-11-20T06:39:29.995Z,4.02
2018-11-20T06:40:38.627Z,4.02
2018-11-20T06:41:47.265Z,4
2018-11-20T06:42:55.899Z,3.94
2018-11-20T06:44:05.061Z,4.02
2018-11-20T06:45:13.688Z,4.03
2018-11-20T06:46:22.328Z,3.96
2018-11-20T06:47:30.960Z,4.07
2018-11-20T06:48:39.602Z,4.06
2018-11-20T06:49:48.232Z,3.99
2018-11-20T06:50:56.869Z,3.89
2018-11-20T06:52:05.502Z,3.88
2018-11-20T06:53:14.384Z,3.89
2018-11-20T06:54:23.484Z,3.95
2018-11-20T06:55:32.110Z,3.99
2018-11-20T06:56:40.745Z,3.95
2018-11-20T06:57:49.382Z,3.99
2018-11-20T06:58:58.544Z,4
2018-11-20T07:00:07.442Z,4
2018-11-20T07:01:16.131Z,4.04
2018-11-20T07:02:25.010Z,4.03
2018-11-20T07:03:33.647Z,4.07
2018-11-20T07:04:42.280Z,4
2018-11-20T07:05:51.190Z,4.04
2018-11-20T07:06:59.839Z,4.04
2018-11-20T07:08:09.324Z,4.09
2018-11-20T07:09:17.793Z,4
2018-11-20T07:10:26.424Z,4.06
2018-11-20T07:11:35.056Z,4.02
2018-11-20T07:12:43.689Z,4.07
2018-11-20T07:13:52.329Z,4.13
2018-11-20T07:15:01.024Z,4
2018-11-20T07:16:10.008Z,4.09
2018-11-20T07:17:18.224Z,4.09
2018-11-20T07:18:26.866Z,4.13
2018-11-20T07:19:35.498Z,4.07
2018-11-20T07:20:44.134Z,4.06
2018-11-20T07:21:52.759Z,4.12
2018-11-20T07:23:01.404Z,4.06
2018-11-20T07:24:10.035Z,4.06
2018-11-20T07:25:18.672Z,4.06
2018-11-20T07:26:27.299Z,4.06
2018-11-20T07:27:35.935Z,4.09
2018-11-20T07:28:44.576Z,4.12
2018-11-20T07:29:53.258Z,4.09
2018-11-20T07:31:02.328Z,4.09
2018-11-20T07:32:10.834Z,4.03
2018-11-20T07:33:19.471Z,4.04
2018-11-20T07:34:28.102Z,4.13
2018-11-20T07:35:37.016Z,4.1
2018-11-20T07:36:45.827Z,4.12
2018-11-20T07:37:55.461Z,4.09
2018-11-20T07:39:04.096Z,4.07
2018-11-20T07:40:13.006Z,4.07
2018-11-20T07:41:21.903Z,4.1
2018-11-20T07:42:30.541Z,4.07
2018-11-20T07:43:39.599Z,4.02
2018-11-20T07:44:48.177Z,4.02
2018-11-20T07:45:57.080Z,4
2018-11-20T07:47:05.711Z,4.03
2018-11-20T07:48:14.346Z,4.04
2018-11-20T07:49:22.974Z,4.03
2018-11-20T07:50:31.618Z,4.07
2018-11-20T07:51:40.300Z,4.02
2018-11-20T07:52:48.886Z,4.03
2018-11-20T07:53:57.512Z,4.02
2018-11-20T07:55:06.158Z,4.04
2018-11-20T07:56:14.867Z,3.89
2018-11-20T07:57:23.425Z,3.86
2018-11-20T07:58:32.057Z,3.96
2018-11-20T07:59:40.963Z,3.99
2018-11-20T08:00:49.594Z,3.99
2018-11-20T08:01:58.232Z,3.92
2018-11-20T08:03:06.889Z,3.91
2018-11-20T08:04:15.534Z,3.92
2018-11-20T08:05:24.170Z,3.94
2018-11-20T08:06:32.815Z,3.92
2018-11-20T08:07:41.453Z,4
2018-11-20T08:08:50.076Z,3.91
2018-11-20T08:09:58.716Z,3.96
2018-11-20T08:11:07.350Z,3.85
2018-11-20T08:12:15.995Z,3.92
2018-11-20T08:13:24.627Z,3.88
2018-11-20T08:14:33.261Z,4.02
2018-11-20T08:15:41.952Z,3.95
2018-11-20T08:16:50.541Z,3.85
2018-11-20T08:17:59.169Z,3.86
2018-11-20T08:19:07.806Z,3.91
2018-11-20T08:20:16.707Z,3.85
2018-11-20T08:21:25.345Z,3.95
2018-11-20T08:22:33.978Z,3.92
2018-11-20T08:23:42.613Z,3.92
2018-11-20T08:24:51.247Z,3.95
2018-11-20T08:26:00.028Z,3.91
2018-11-20T08:27:08.519Z,3.92
2018-11-20T08:28:17.154Z,3.94
2018-11-20T08:29:25.788Z,3.99
2018-11-20T08:30:34.416Z,3.94
2018-11-20T08:31:43.056Z,3.95
2018-11-20T08:32:51.692Z,3.92
2018-11-20T08:34:00.326Z,3.86
2018-11-20T08:35:08.986Z,3.85
2018-11-20T08:36:17.593Z,3.88
2018-11-20T08:37:26.240Z,3.88
2018-11-20T08:38:34.877Z,3.99
2018-11-20T08:39:43.505Z,3.85
2018-11-20T08:40:52.666Z,4
2018-11-20T08:42:01.351Z,4
2018-11-20T08:43:09.938Z,3.85
2018-11-20T08:44:18.652Z,3.84
2018-11-20T08:45:27.549Z,3.92
2018-11-20T08:46:36.448Z,3.94
2018-11-20T08:47:45.152Z,3.88
2018-11-20T08:48:53.724Z,3.89
2018-11-20T08:50:02.356Z,3.89
2018-11-20T08:51:10.991Z,3.89
2018-11-20T08:52:19.627Z,3.86
2018-11-20T08:53:28.575Z,3.81
2018-11-20T08:54:37.158Z,3.86
2018-11-20T08:55:45.793Z,3.85
2018-11-20T08:56:54.697Z,3.86
2018-11-20T08:58:03.334Z,3.91
2018-11-20T08:59:11.969Z,3.89
2018-11-20T09:00:20.606Z,3.95
2018-11-20T09:01:29.244Z,3.89
2018-11-20T09:02:38.010Z,3.89
2018-11-20T09:03:46.517Z,3.92
2018-11-20T09:04:55.425Z,3.85
2018-11-20T09:06:04.065Z,3.92
2018-11-20T09:07:12.964Z,3.84
2018-11-20T09:08:21.604Z,3.85
2018-11-20T09:09:30.769Z,3.89
2018-11-20T09:10:39.546Z,3.94
2018-11-20T09:11:48.034Z,3.84
2018-11-20T09:12:56.677Z,3.92
2018-11-20T09:14:05.308Z,3.89
2018-11-20T09:15:13.945Z,3.86
2018-11-20T09:16:22.569Z,3.88
2018-11-20T09:17:31.208Z,3.89
2018-11-20T09:18:40.648Z,3.88
2018-11-20T09:19:49.567Z,3.92
2018-11-20T09:20:58.225Z,3.89
2018-11-20T09:22:06.832Z,3.89
2018-11-20T09:23:15.471Z,3.86
2018-11-20T09:24:24.102Z,3.85
2018-11-20T09:25:33.092Z,3.85
2018-11-20T09:26:41.661Z,3.82
2018-11-20T09:27:50.693Z,3.88
2018-11-20T09:28:59.285Z,3.86
2018-11-20T09:30:08.194Z,3.92
2018-11-20T09:31:16.818Z,3.86
2018-11-20T09:32:25.457Z,3.91
2018-11-20T09:33:34.084Z,3.94
2018-11-20T09:34:43.118Z,3.85
2018-11-20T09:35:52.082Z,3.91
2018-11-20T09:37:00.716Z,3.99
2018-11-20T09:38:09.609Z,3.96
2018-11-20T09:39:18.241Z,3.92
2018-11-20T09:40:26.885Z,3.94
2018-11-20T09:41:35.514Z,3.94
2018-11-20T09:42:44.156Z,3.95
2018-11-20T09:43:52.781Z,3.91
2018-11-20T09:45:01.426Z,3.92
2018-11-20T09:46:10.600Z,4
2018-11-20T09:47:19.292Z,3.95
2018-11-20T09:48:27.916Z,3.99
2018-11-20T09:49:36.561Z,3.95
2018-11-20T09:50:45.192Z,3.89
2018-11-20T09:51:53.837Z,3.99
2018-11-20T09:53:02.461Z,3.95
2018-11-20T09:54:11.380Z,3.94
2018-11-20T09:55:20.150Z,4.03
2018-11-20T09:56:28.861Z,4.04
2018-11-20T09:57:37.766Z,4.02
2018-11-20T09:58:46.391Z,4.1
2018-11-20T09:59:55.102Z,4.02
2018-11-20T10:01:03.664Z,4.04
2018-11-20T10:02:12.310Z,4.03
2018-11-20T10:03:20.933Z,4.04
2018-11-20T10:04:29.768Z,4.06
2018-11-20T10:05:38.439Z,4.1
2018-11-20T10:06:47.122Z,4.03
2018-11-20T10:07:56.439Z,4.1
2018-11-20T10:09:05.816Z,4.1
2018-11-20T10:10:15.089Z,4.12
2018-11-20T10:11:24.467Z,4.14
2018-11-20T10:12:33.921Z,4.09
2018-11-20T10:13:43.136Z,4.07
2018-11-20T10:14:53.081Z,4.03
2018-11-20T10:16:03.382Z,4.14
2018-11-20T10:17:12.558Z,4.12
2018-11-20T10:18:22.022Z,4.14
2018-11-20T10:19:31.170Z,4.13
2018-11-20T10:20:40.609Z,4.13
2018-11-20T10:21:50.156Z,4.13
2018-11-20T10:22:59.396Z,4.09
2018-11-20T10:24:08.946Z,4.09
2018-11-20T10:25:18.352Z,4.07
2018-11-20T10:26:27.741Z,4.12
2018-11-20T10:27:37.294Z,4.13
2018-11-20T10:28:46.938Z,4.12
2018-11-20T10:29:56.551Z,4.09
2018-11-20T10:31:05.865Z,4.16
2018-11-20T10:32:15.721Z,4.06
2018-11-20T10:33:24.867Z,4.13
2018-11-20T10:34:34.216Z,4.1
2018-11-20T10:35:44.471Z,4.16
2018-11-20T10:36:53.620Z,4.22
2018-11-20T10:38:03.113Z,4.2
2018-11-20T10:39:12.126Z,4.14
2018-11-20T10:40:21.726Z,4.2
2018-11-20T10:41:31.213Z,4.24
2018-11-20T10:42:40.814Z,4.18
2018-11-20T10:43:50.048Z,4.18
2018-11-20T10:44:59.909Z,4.13
2018-11-20T10:46:09.366Z,4.13
2018-11-20T10:47:18.993Z,4.14
2018-11-20T10:48:28.275Z,4.14
2018-11-20T10:49:38.071Z,4.12
2018-11-20T10:50:47.413Z,4.27
2018-11-20T10:51:56.613Z,4.28
2018-11-20T10:53:05.860Z,4.28
2018-11-20T10:54:15.482Z,4.24
2018-11-20T10:55:24.959Z,4.21
2018-11-20T10:56:34.887Z,4.32
2018-11-20T10:57:44.479Z,4.3
2018-11-20T10:58:54.277Z,4.32
2018-11-20T11:00:03.466Z,4.34
2018-11-20T11:01:12.966Z,4.34
2018-11-20T11:02:22.162Z,4.27
2018-11-20T11:03:31.397Z,4.32
2018-11-20T11:04:40.722Z,4.31
2018-11-20T11:05:49.744Z,4.36
2018-11-20T11:06:59.474Z,4.39
2018-11-20T11:08:08.911Z,4.28
2018-11-20T11:09:18.457Z,4.28
2018-11-20T11:10:28.594Z,4.39
2018-11-20T11:11:37.916Z,4.32
2018-11-20T11:12:46.854Z,4.3
2018-11-20T11:13:55.948Z,4.24
2018-11-20T11:15:05.199Z,4.34
2018-11-20T11:16:14.662Z,4.36
2018-11-20T11:17:24.279Z,4.28
2018-11-20T11:18:33.931Z,4.36
2018-11-20T11:19:43.121Z,4.39
2018-11-20T11:20:52.271Z,4.24
2018-11-20T11:22:02.829Z,4.31
2018-11-20T11:23:12.364Z,4.25
2018-11-20T11:24:22.146Z,4.31
2018-11-20T11:25:31.328Z,4.22
2018-11-20T11:26:40.684Z,4.3
2018-11-20T11:27:49.756Z,4.34
2018-11-20T11:29:01.257Z,4.32
2018-11-20T11:30:14.222Z,4.24
2018-11-20T11:31:27.341Z,4.28
2018-11-20T11:32:38.742Z,4.25
2018-11-20T11:33:47.372Z,4.24
2018-11-20T11:34:56.014Z,4.25
2018-11-20T11:36:04.649Z,4.3
2018-11-20T11:37:13.285Z,4.34
2018-11-20T11:38:22.779Z,4.31
2018-11-20T11:39:30.822Z,4.3
2018-11-20T11:40:39.451Z,4.27
2018-11-20T11:41:48.491Z,4.27
2018-11-20T11:42:57.127Z,4.25
2018-11-20T11:44:05.815Z,4.28
2018-11-20T11:45:14.397Z,4.31
2018-11-20T11:46:23.296Z,4.28
2018-11-20T11:47:31.930Z,4.18
2018-11-20T11:48:40.565Z,4.25
2018-11-20T11:49:49.204Z,4.27
2018-11-20T11:50:58.362Z,4.3
2018-11-20T11:52:06.997Z,4.24
2018-11-20T11:53:15.627Z,4.24
2018-11-20T11:54:24.269Z,4.27
2018-11-20T11:55:32.901Z,4.25
2018-11-20T11:56:41.538Z,4.32
2018-11-20T11:57:50.170Z,4.27
2018-11-20T11:58:58.817Z,4.32
2018-11-20T12:00:07.714Z,4.24
2018-11-20T12:01:16.353Z,4.28
2018-11-20T12:03:33.407Z,4.28
2018-11-20T12:04:42.047Z,4.31
2018-11-20T12:05:50.697Z,4.32
2018-11-20T12:07:02.839Z,4.22
2018-11-20T12:08:11.469Z,4.27
2018-11-20T12:09:20.104Z,4.18
2018-11-20T12:10:28.740Z,4.3
2018-11-20T12:11:37.380Z,4.2
2018-11-20T12:12:46.283Z,4.21
2018-11-20T12:13:54.920Z,4.14
2018-11-20T12:15:03.556Z,4.14
2018-11-20T12:16:12.317Z,4.21
2018-11-20T12:17:21.237Z,4.22
2018-11-20T12:18:29.875Z,4.16
2018-11-20T12:19:38.509Z,4.1
2018-11-20T12:20:47.149Z,4.12
2018-11-20T12:21:55.805Z,4.18
2018-11-20T12:23:04.460Z,4.2
2018-11-20T12:24:13.357Z,4.14
2018-11-20T12:25:21.994Z,4.18
2018-11-20T12:26:30.634Z,4.21
2018-11-20T12:27:40.249Z,4.22
2018-11-20T12:28:53.001Z,4.22
2018-11-20T12:29:57.925Z,4.2
2018-11-20T12:31:06.949Z,4.32
2018-11-20T12:32:18.449Z,4.22
2018-11-20T12:33:31.135Z,4.25
2018-11-20T12:34:39.774Z,4.22
2018-11-20T12:35:48.416Z,4.34
2018-11-20T12:36:57.055Z,4.3
2018-11-20T12:38:05.695Z,4.36
2018-11-20T12:39:14.328Z,4.38
2018-11-20T12:40:22.970Z,4.28
2018-11-20T12:41:31.612Z,4.36
2018-11-20T12:42:40.991Z,4.36
2018-11-20T12:43:48.887Z,4.36
2018-11-20T12:44:59.133Z,4.39
2018-11-20T12:46:11.179Z,4.3
2018-11-20T12:47:16.430Z,4.42
2018-11-20T12:48:25.070Z,4.36
2018-11-20T12:49:33.703Z,4.38
2018-11-20T12:50:42.339Z,4.34
2018-11-20T12:51:53.701Z,4.36
2018-11-20T12:53:02.493Z,4.36
2018-11-20T12:54:10.968Z,4.34
2018-11-20T12:55:20.223Z,4.4
2018-11-20T12:56:29.121Z,4.42
2018-11-20T12:57:37.767Z,4.34
2018-11-20T12:58:46.400Z,4.34
2018-11-20T12:59:55.036Z,4.34
2018-11-20T13:01:03.673Z,4.34
2018-11-20T13:02:12.419Z,4.36
2018-11-20T13:03:21.338Z,4.32
2018-11-20T13:04:30.095Z,4.36
2018-11-20T13:05:38.856Z,4.39
2018-11-20T13:06:47.804Z,4.36
2018-11-20T13:07:56.446Z,4.34
2018-11-20T13:09:05.077Z,4.38
2018-11-20T13:10:13.717Z,4.42
2018-11-20T13:11:22.343Z,4.38
2018-11-20T13:12:30.986Z,4.38
2018-11-20T13:13:39.621Z,4.36
2018-11-20T13:14:49.380Z,4.36
2018-11-20T13:15:57.217Z,4.38
2018-11-20T13:17:06.970Z,4.4
2018-11-20T13:18:16.092Z,4.38
2018-11-20T13:19:25.419Z,4.39
2018-11-20T13:20:33.374Z,4.39
2018-11-20T13:21:42.857Z,4.38
2018-11-20T13:22:53.758Z,4.34
2018-11-20T13:24:02.388Z,4.38
2018-11-20T13:25:14.341Z,4.36
2018-11-20T13:26:22.971Z,4.38
2018-11-20T13:27:31.618Z,4.38
2018-11-20T13:28:40.510Z,4.4
2018-11-20T13:29:49.155Z,4.38
2018-11-20T13:30:57.783Z,4.36
2018-11-20T13:32:06.421Z,4.28
2018-11-20T13:33:15.845Z,4.39
2018-11-20T13:34:27.192Z,4.39
2018-11-20T13:35:34.260Z,4.34
2018-11-20T13:36:42.890Z,4.39
2018-11-20T13:37:51.876Z,4.36
2018-11-20T13:39:02.766Z,4.38
2018-11-20T13:40:09.064Z,4.43
2018-11-20T13:41:17.965Z,4.38
2018-11-20T13:42:26.867Z,4.36
2018-11-20T13:43:36.531Z,4.42
2018-11-20T13:44:45.175Z,4.38
2018-11-20T13:45:53.804Z,4.42
2018-11-20T13:47:04.027Z,4.32
2018-11-20T13:48:11.076Z,4.38
2018-11-20T13:49:19.715Z,4.38
2018-11-20T13:50:28.345Z,4.43
2018-11-20T13:51:36.982Z,4.36
2018-11-20T13:52:47.437Z,4.43
2018-11-20T13:53:56.614Z,4.39
2018-11-20T13:55:05.254Z,4.38
2018-11-20T13:56:13.895Z,4.4
2018-11-20T13:57:22.536Z,4.43
2018-11-20T13:58:31.164Z,4.38
2018-11-20T13:59:39.805Z,4.36
2018-11-20T14:00:48.708Z,4.38
2018-11-20T14:01:57.350Z,4.39
2018-11-20T14:03:06.245Z,4.48
2018-11-20T14:04:14.888Z,4.36
2018-11-20T14:05:23.518Z,4.39
2018-11-20T14:06:32.149Z,4.36
2018-11-20T14:07:40.792Z,4.39
2018-11-20T14:08:49.431Z,4.36
2018-11-20T14:09:58.067Z,4.38
2018-11-20T14:11:06.692Z,4.38
2018-11-20T14:12:15.332Z,4.4
2018-11-20T14:13:23.979Z,4.36
2018-11-20T14:14:32.886Z,4.4
2018-11-20T14:15:41.524Z,4.39
2018-11-20T14:16:50.150Z,4.39
2018-11-20T14:17:58.788Z,4.36
2018-11-20T14:19:07.419Z,4.38
2018-11-20T14:20:16.062Z,4.36
2018-11-20T14:21:24.687Z,4.36
2018-11-20T14:22:33.329Z,4.39
2018-11-20T14:23:41.958Z,4.39
2018-11-20T14:24:50.616Z,4.36
2018-11-20T14:25:59.232Z,4.31
2018-11-20T14:27:07.870Z,4.32
2018-11-20T14:28:16.505Z,4.31
2018-11-20T14:29:25.152Z,4.27
2018-11-20T14:30:33.786Z,4.13
2018-11-20T14:31:42.416Z,4.09
2018-11-20T14:32:51.052Z,4.07
2018-11-20T14:33:59.684Z,4.09
2018-11-20T14:35:08.330Z,3.94
2018-11-20T14:36:17.488Z,3.85
2018-11-20T14:37:26.127Z,3.86
2018-11-20T14:38:34.755Z,3.77
2018-11-20T14:39:43.400Z,3.76
2018-11-20T14:40:52.029Z,3.71
2018-11-20T14:42:00.668Z,3.74
2018-11-20T14:43:09.593Z,3.63
2018-11-20T14:44:18.231Z,3.61
2018-11-20T14:45:26.870Z,3.52
2018-11-20T14:46:35.772Z,3.48
2018-11-20T14:47:44.398Z,3.34
2018-11-20T14:48:53.035Z,3.45
2018-11-20T14:50:01.674Z,3.43
2018-11-20T14:51:10.314Z,3.36
2018-11-20T14:52:19.241Z,3.36
2018-11-20T14:53:27.873Z,3.29
2018-11-20T14:54:36.532Z,3.29
2018-11-20T14:55:45.438Z,3.18
2018-11-20T14:56:54.418Z,3.16
2018-11-20T14:58:03.411Z,3.11
2018-11-20T14:59:12.062Z,3.13
2018-11-20T15:00:20.688Z,3.06
2018-11-20T15:01:29.521Z,3
2018-11-20T15:02:38.372Z,3.03
2018-11-20T15:03:47.059Z,3.06
2018-11-20T15:04:55.692Z,2.91
2018-11-20T15:06:04.335Z,2.85
2018-11-20T15:07:14.127Z,2.8
2018-11-20T15:08:21.912Z,2.73
2018-11-20T15:09:30.547Z,2.7
2018-11-20T15:10:39.317Z,2.64
2018-11-20T15:11:47.958Z,2.69
2018-11-20T15:12:56.665Z,2.65
2018-11-20T15:14:05.302Z,2.64
2018-11-20T15:15:14.263Z,2.61
2018-11-20T15:16:22.972Z,2.55
2018-11-20T15:17:31.662Z,2.52
2018-11-20T15:18:43.987Z,2.51
2018-11-20T15:19:53.008Z,2.43
2018-11-20T15:21:01.646Z,2.5
2018-11-20T15:22:10.278Z,2.52